createdAt,value
2018-09-25T00:00:05.870Z,78.47
2018-09-25T00:02:52.341Z,78.79
2018-09-25T00:05:38.900Z,78.78
2018-09-25T00:08:25.356Z,78.75
2018-09-25T00:11:12.085Z,78.44
2018-09-25T00:13:58.925Z,78.49
2018-09-25T00:16:45.672Z,78.87
2018-09-25T00:19:32.240Z,79.20
2018-09-25T00:22:18.918Z,79.31
2018-09-25T00:25:05.501Z,79.16
2018-09-25T00:27:52.338Z,79.53
2018-09-25T00:30:38.885Z,79.22
2018-09-25T00:33:25.669Z,79.34
2018-09-25T00:36:12.682Z,79.40
2018-09-25T00:38:59.435Z,79.51
2018-09-25T00:41:46.214Z,79.66
2018-09-25T00:44:33.230Z,79.63
2018-09-25T00:47:19.873Z,79.24
2018-09-25T00:50:06.225Z,79.29
2018-09-25T00:52:52.645Z,79.38
2018-09-25T00:55:39.172Z,79.27
2018-09-25T00:58:25.899Z,79.31
2018-09-25T01:01:12.707Z,79.32
2018-09-25T01:03:59.167Z,79.45
2018-09-25T01:06:45.481Z,79.29
2018-09-25T01:09:32.136Z,79.52
2018-09-25T01:12:18.720Z,79.36
2018-09-25T01:15:05.312Z,78.94
2018-09-25T01:17:52.280Z,79.13
2018-09-25T01:20:39.112Z,78.78
2018-09-25T01:23:25.533Z,78.23
2018-09-25T01:26:12.252Z,78.02
2018-09-25T01:28:58.813Z,76.51
2018-09-25T01:31:45.140Z,77.50
2018-09-25T01:34:32.146Z,77.42
2018-09-25T01:37:18.632Z,77.38
2018-09-25T01:40:05.172Z,77.26
2018-09-25T01:42:51.935Z,77.98
2018-09-25T01:45:38.639Z,78.48
2018-09-25T01:48:25.548Z,78.77
2018-09-25T01:51:12.349Z,78.75
2018-09-25T01:53:59.161Z,78.74
2018-09-25T01:56:45.657Z,78.34
2018-09-25T01:59:32.262Z,79.02
2018-09-25T02:02:19.302Z,78.98
2018-09-25T02:05:06.060Z,79.25
2018-09-25T02:07:52.732Z,79.46
2018-09-25T02:10:39.234Z,79.40
2018-09-25T02:13:25.755Z,79.62
2018-09-25T02:16:12.448Z,79.69
2018-09-25T02:18:59.169Z,80.06
2018-09-25T02:21:45.952Z,79.97
2018-09-25T02:24:32.312Z,79.71
2018-09-25T02:27:19.367Z,79.60
2018-09-25T02:30:06.058Z,78.14
2018-09-25T02:32:52.553Z,79.16
2018-09-25T02:35:39.528Z,78.85
2018-09-25T02:38:26.065Z,78.77
2018-09-25T02:41:12.495Z,78.52
2018-09-25T02:43:59.176Z,78.34
2018-09-25T02:46:45.860Z,77.79
2018-09-25T02:49:32.620Z,77.36
2018-09-25T02:52:19.266Z,77.34
2018-09-25T02:55:05.562Z,77.74
2018-09-25T02:57:52.211Z,77.63
2018-09-25T03:00:38.816Z,77.23
2018-09-25T03:03:25.543Z,76.99
2018-09-25T03:06:11.847Z,77.26
2018-09-25T03:08:58.607Z,77.47
2018-09-25T03:11:45.542Z,77.34
2018-09-25T03:14:31.797Z,77.50
2018-09-25T03:17:18.500Z,76.20
2018-09-25T03:20:05.065Z,77.39
2018-09-25T03:22:51.596Z,77.30
2018-09-25T03:25:38.276Z,77.64
2018-09-25T03:28:25.214Z,77.68
2018-09-25T03:31:11.792Z,76.23
2018-09-25T03:33:58.367Z,77.38
2018-09-25T03:36:45.280Z,77.06
2018-09-25T03:39:31.494Z,77.45
2018-09-25T03:42:17.790Z,77.63
2018-09-25T03:45:04.160Z,77.44
2018-09-25T03:47:50.707Z,77.49
2018-09-25T03:50:37.035Z,77.63
2018-09-25T03:53:23.431Z,77.16
2018-09-25T03:56:09.920Z,77.04
2018-09-25T03:58:56.233Z,77.26
2018-09-25T04:01:42.460Z,77.60
2018-09-25T04:04:29.044Z,77.14
2018-09-25T04:07:15.412Z,77.22
2018-09-25T04:10:02.283Z,77.26
2018-09-25T04:12:48.545Z,77.82
2018-09-25T04:15:35.363Z,78.55
2018-09-25T04:18:22.044Z,78.04
2018-09-25T04:21:08.875Z,78.17
2018-09-25T04:23:55.394Z,77.78
2018-09-25T04:26:41.947Z,77.88
2018-09-25T04:29:28.219Z,77.98
2018-09-25T04:32:14.837Z,77.92
2018-09-25T04:35:01.542Z,78.04
2018-09-25T04:37:47.956Z,77.93
2018-09-25T04:40:34.322Z,78.04
2018-09-25T04:43:20.904Z,77.84
2018-09-25T04:46:07.201Z,77.74
2018-09-25T04:48:54.045Z,78.09
2018-09-25T04:51:40.939Z,77.88
2018-09-25T04:54:27.450Z,77.27
2018-09-25T04:57:14.218Z,77.04
2018-09-25T05:00:00.828Z,76.92
2018-09-25T05:02:47.670Z,76.95
2018-09-25T05:05:34.346Z,76.94
2018-09-25T05:08:20.789Z,77.31
2018-09-25T05:11:07.251Z,76.95
2018-09-25T05:13:53.663Z,76.85
2018-09-25T05:16:40.395Z,77.27
2018-09-25T05:19:27.064Z,77.25
2018-09-25T05:22:13.777Z,77.35
2018-09-25T05:25:00.108Z,76.84
2018-09-25T05:27:46.528Z,76.58
2018-09-25T05:30:33.271Z,76.77
2018-09-25T05:33:19.764Z,76.75
2018-09-25T05:36:06.389Z,76.60
2018-09-25T05:38:52.912Z,76.87
2018-09-25T05:41:39.281Z,76.90
2018-09-25T05:44:26.037Z,77.48
2018-09-25T05:47:12.570Z,77.62
2018-09-25T05:49:59.300Z,77.78
2018-09-25T05:52:45.851Z,77.83
2018-09-25T05:55:32.678Z,77.54
2018-09-25T05:58:19.423Z,77.72
2018-09-25T06:01:06.271Z,77.87
2018-09-25T06:03:52.869Z,77.76
2018-09-25T06:06:39.577Z,77.58
2018-09-25T06:09:26.781Z,77.59
2018-09-25T06:12:13.251Z,77.37
2018-09-25T06:15:00.066Z,76.95
2018-09-25T06:17:46.865Z,77.07
2018-09-25T06:20:33.398Z,77.61
2018-09-25T06:23:20.207Z,77.60
2018-09-25T06:26:06.944Z,77.74
2018-09-25T06:28:53.592Z,77.89
2018-09-25T06:31:40.411Z,77.93
2018-09-25T06:34:26.888Z,78.52
2018-09-25T06:37:13.737Z,78.82
2018-09-25T06:40:00.532Z,78.82
2018-09-25T06:42:46.884Z,78.90
2018-09-25T06:45:33.817Z,78.83
2018-09-25T06:48:20.630Z,78.99
2018-09-25T06:51:07.360Z,78.73
2018-09-25T06:53:54.039Z,79.68
2018-09-25T06:56:40.591Z,79.74
2018-09-25T06:59:26.853Z,80.34
2018-09-25T07:02:13.734Z,80.13
2018-09-25T07:05:00.376Z,80.41
2018-09-25T07:07:47.045Z,80.28
2018-09-25T07:10:34.010Z,80.25
2018-09-25T07:13:20.425Z,80.10
2018-09-25T07:16:06.979Z,79.78
2018-09-25T07:18:53.689Z,80.20
2018-09-25T07:21:40.211Z,79.96
2018-09-25T07:24:26.498Z,80.10
2018-09-25T07:27:13.014Z,80.01
2018-09-25T07:29:59.321Z,79.53
2018-09-25T07:32:45.833Z,80.05
2018-09-25T07:35:32.559Z,79.82
2018-09-25T07:38:19.140Z,79.86
2018-09-25T07:41:05.918Z,79.96
2018-09-25T07:43:52.409Z,80.11
2018-09-25T07:46:39.118Z,80.04
2018-09-25T07:49:25.837Z,80.04
2018-09-25T07:52:12.579Z,80.06
2018-09-25T07:54:59.184Z,80.19
2018-09-25T07:57:45.621Z,80.25
2018-09-25T08:00:32.388Z,80.11
2018-09-25T08:03:19.091Z,79.41
2018-09-25T08:06:05.501Z,77.05
2018-09-25T08:08:52.378Z,75.27
2018-09-25T08:11:38.950Z,74.52
2018-09-25T08:14:25.463Z,74.47
2018-09-25T08:17:12.393Z,73.35
2018-09-25T08:19:59.026Z,72.46
2018-09-25T08:22:45.529Z,72.21
2018-09-25T08:25:32.147Z,71.49
2018-09-25T08:28:18.681Z,69.73
2018-09-25T08:31:05.323Z,67.56
2018-09-25T08:33:51.897Z,66.46
2018-09-25T08:36:38.130Z,66.11
2018-09-25T08:39:27.154Z,66.72
2018-09-25T08:42:13.480Z,67.38
2018-09-25T08:45:00.007Z,67.88
2018-09-25T08:47:46.768Z,68.00
2018-09-25T08:50:33.430Z,68.06
2018-09-25T08:53:19.746Z,68.47
2018-09-25T08:56:06.516Z,67.39
2018-09-25T08:58:52.981Z,66.36
2018-09-25T09:01:39.336Z,65.58
2018-09-25T09:04:25.953Z,65.09
2018-09-25T09:07:12.695Z,61.94
2018-09-25T09:09:59.284Z,60.43
2018-09-25T09:12:45.701Z,59.36
2018-09-25T09:15:32.457Z,56.99
2018-09-25T09:18:19.322Z,57.01
2018-09-25T09:21:05.606Z,54.57
2018-09-25T09:23:52.142Z,52.78
2018-09-25T09:26:38.549Z,48.07
2018-09-25T09:29:25.285Z,45.33
2018-09-25T09:32:11.635Z,39.52
2018-09-25T09:34:58.336Z,37.31
2018-09-25T09:37:44.924Z,34.01
2018-09-25T09:40:31.454Z,33.70
2018-09-25T09:43:18.424Z,38.47
2018-09-25T09:46:05.003Z,42.61
2018-09-25T09:48:51.774Z,44.78
2018-09-25T09:51:38.289Z,46.35
2018-09-25T09:54:24.664Z,46.61
2018-09-25T09:57:11.396Z,50.70
2018-09-25T09:59:58.020Z,52.68
2018-09-25T10:02:44.425Z,54.14
2018-09-25T10:05:30.761Z,54.55
2018-09-25T10:08:17.296Z,55.15
2018-09-25T10:11:03.913Z,55.55
2018-09-25T10:13:50.337Z,56.79
2018-09-25T10:16:37.041Z,50.81
2018-09-25T10:19:23.562Z,45.97
2018-09-25T10:22:10.222Z,41.63
2018-09-25T10:24:56.698Z,37.39
2018-09-25T10:27:43.313Z,33.58
2018-09-25T10:30:29.591Z,33.60
2018-09-25T10:33:15.927Z,29.51
2018-09-25T10:36:02.418Z,27.98
2018-09-25T10:38:48.764Z,26.53
2018-09-25T10:41:35.276Z,26.91
2018-09-25T10:44:21.982Z,27.02
2018-09-25T10:47:08.389Z,25.48
2018-09-25T10:49:54.968Z,25.90
2018-09-25T10:52:41.591Z,27.89
2018-09-25T10:55:27.872Z,25.81
2018-09-25T10:58:14.724Z,27.43
2018-09-25T11:01:01.187Z,28.76
2018-09-25T11:03:47.793Z,23.52
2018-09-25T11:06:34.595Z,23.98
2018-09-25T11:09:21.107Z,25.84
2018-09-25T11:12:07.700Z,26.07
2018-09-25T11:14:54.204Z,28.62
2018-09-25T11:17:41.016Z,28.54
2018-09-25T11:20:27.476Z,28.83
2018-09-25T11:23:13.821Z,29.52
2018-09-25T11:26:00.272Z,31.73
2018-09-25T11:28:46.872Z,31.58
2018-09-25T11:31:33.385Z,32.45
2018-09-25T11:34:20.364Z,31.78
2018-09-25T11:37:07.092Z,34.65
2018-09-25T11:39:53.831Z,36.61
2018-09-25T11:42:40.585Z,33.66
2018-09-25T11:45:27.159Z,32.84
2018-09-25T11:48:13.773Z,36.52
2018-09-25T11:51:00.500Z,35.06
2018-09-25T11:53:47.043Z,36.15
2018-09-25T11:56:33.751Z,35.36
2018-09-25T11:59:20.301Z,35.50
2018-09-25T12:02:07.004Z,35.66
2018-09-25T12:04:53.341Z,38.62
2018-09-25T12:07:40.326Z,39.32
2018-09-25T12:10:26.760Z,41.41
2018-09-25T12:13:13.265Z,37.66
2018-09-25T12:16:00.028Z,39.69
2018-09-25T12:18:46.774Z,41.50
2018-09-25T12:21:33.300Z,40.35
2018-09-25T12:24:19.757Z,41.00
2018-09-25T12:27:06.460Z,41.03
2018-09-25T12:29:52.747Z,42.12
2018-09-25T12:32:39.541Z,43.24
2018-09-25T12:35:26.274Z,41.76
2018-09-25T12:38:12.768Z,45.31
2018-09-25T12:40:59.375Z,43.01
2018-09-25T12:43:45.897Z,44.45
2018-09-25T12:46:32.560Z,44.58
2018-09-25T12:49:19.088Z,43.75
2018-09-25T12:52:05.435Z,45.47
2018-09-25T12:54:52.244Z,44.55
2018-09-25T12:57:38.600Z,43.17
2018-09-25T13:00:25.264Z,42.62
2018-09-25T13:03:11.668Z,42.24
2018-09-25T13:05:58.042Z,44.53
2018-09-25T13:08:44.473Z,44.62
2018-09-25T13:11:30.728Z,46.67
2018-09-25T13:14:17.277Z,46.08
2018-09-25T13:17:03.594Z,44.21
2018-09-25T13:19:50.302Z,44.81
2018-09-25T13:22:36.715Z,45.52
2018-09-25T13:25:23.336Z,44.21
2018-09-25T13:28:09.685Z,44.63
2018-09-25T13:30:56.594Z,45.08
2018-09-25T13:33:43.345Z,46.51
2018-09-25T13:36:29.835Z,45.57
2018-09-25T13:39:16.262Z,46.69
2018-09-25T13:42:03.209Z,46.78
2018-09-25T13:44:49.768Z,46.11
2018-09-25T13:47:36.346Z,46.79
2018-09-25T13:50:23.103Z,49.16
2018-09-25T13:53:09.571Z,46.90
2018-09-25T13:55:56.258Z,46.85
2018-09-25T13:58:43.198Z,49.11
2018-09-25T14:01:29.966Z,49.53
2018-09-25T14:04:16.706Z,50.35
2018-09-25T14:07:03.565Z,50.76
2018-09-25T14:09:50.458Z,49.25
2018-09-25T14:12:37.317Z,48.31
2018-09-25T14:15:23.793Z,49.40
2018-09-25T14:18:10.054Z,48.70
2018-09-25T14:20:56.839Z,49.01
2018-09-25T14:23:43.393Z,46.93
2018-09-25T14:26:29.872Z,47.25
2018-09-25T14:29:16.458Z,48.36
2018-09-25T14:32:03.117Z,49.21
2018-09-25T14:34:49.591Z,47.57
2018-09-25T14:37:36.541Z,47.68
2018-09-25T14:40:23.739Z,47.25
2018-09-25T14:43:10.401Z,46.29
2018-09-25T14:45:56.907Z,47.12
2018-09-25T14:48:43.403Z,46.37
2018-09-25T14:51:30.322Z,46.21
2018-09-25T14:54:17.143Z,45.99
2018-09-25T14:57:03.636Z,45.52
2018-09-25T14:59:50.078Z,46.76
2018-09-25T15:02:36.513Z,45.10
2018-09-25T15:05:22.813Z,43.50
2018-09-25T15:08:09.301Z,44.14
2018-09-25T15:10:56.153Z,45.14
2018-09-25T15:13:42.686Z,45.10
2018-09-25T15:16:29.614Z,43.07
2018-09-25T15:19:16.146Z,42.06
2018-09-25T15:22:02.818Z,42.03
2018-09-25T15:24:49.016Z,42.01
2018-09-25T15:27:35.829Z,43.50
2018-09-25T15:30:22.415Z,42.03
2018-09-25T15:33:09.311Z,41.31
2018-09-25T15:35:55.740Z,40.79
2018-09-25T15:38:42.465Z,41.42
2018-09-25T15:41:29.312Z,40.68
2018-09-25T15:44:15.909Z,40.82
2018-09-25T15:47:02.807Z,42.05
2018-09-25T15:49:49.439Z,42.51
2018-09-25T15:52:36.191Z,43.34
2018-09-25T15:55:22.489Z,44.48
2018-09-25T15:58:08.886Z,44.05
2018-09-25T16:00:55.344Z,44.28
2018-09-25T16:03:42.217Z,45.01
2018-09-25T16:06:29.001Z,44.53
2018-09-25T16:09:16.132Z,44.54
2018-09-25T16:12:02.807Z,43.92
2018-09-25T16:14:49.380Z,43.26
2018-09-25T16:17:36.070Z,45.38
2018-09-25T16:20:23.105Z,44.83
2018-09-25T16:23:09.869Z,44.90
2018-09-25T16:25:57.293Z,45.28
2018-09-25T16:28:43.869Z,45.74
2018-09-25T16:31:30.227Z,46.82
2018-09-25T16:34:17.318Z,48.50
2018-09-25T16:37:04.062Z,47.25
2018-09-25T16:39:50.375Z,48.17
2018-09-25T16:42:37.442Z,49.00
2018-09-25T16:45:23.774Z,50.34
2018-09-25T16:48:10.560Z,51.17
2018-09-25T16:50:57.249Z,51.65
2018-09-25T16:53:44.021Z,51.49
2018-09-25T16:56:30.418Z,52.09
2018-09-25T16:59:17.132Z,52.78
2018-09-25T17:02:03.785Z,54.06
2018-09-25T17:04:50.325Z,54.87
2018-09-25T17:07:37.268Z,54.30
2018-09-25T17:10:23.895Z,54.93
2018-09-25T17:13:10.361Z,56.55
2018-09-25T17:15:57.025Z,56.48
2018-09-25T17:18:43.729Z,55.63
2018-09-25T17:21:30.509Z,54.75
2018-09-25T17:24:17.012Z,55.23
2018-09-25T17:27:03.896Z,56.50
2018-09-25T17:29:50.429Z,56.25
2018-09-25T17:32:36.958Z,56.48
2018-09-25T17:35:23.542Z,56.79
2018-09-25T17:38:10.036Z,58.33
2018-09-25T17:40:56.822Z,55.91
2018-09-25T17:43:43.595Z,57.42
2018-09-25T17:46:30.370Z,57.41
2018-09-25T17:49:17.300Z,58.21
2018-09-25T17:52:04.046Z,59.42
2018-09-25T17:54:50.645Z,59.88
2018-09-25T17:57:37.470Z,60.64
2018-09-25T18:00:25.059Z,60.88
2018-09-25T18:03:11.353Z,61.75
2018-09-25T18:05:58.202Z,62.09
2018-09-25T18:08:44.653Z,61.42
2018-09-25T18:11:30.947Z,61.32
2018-09-25T18:14:17.273Z,61.13
2018-09-25T18:17:04.010Z,60.76
2018-09-25T18:19:50.557Z,60.60
2018-09-25T18:22:37.413Z,61.11
2018-09-25T18:25:24.343Z,61.93
2018-09-25T18:28:11.203Z,63.15
2018-09-25T18:30:57.431Z,63.23
2018-09-25T18:33:44.296Z,64.11
2018-09-25T18:36:31.134Z,64.18
2018-09-25T18:39:17.320Z,64.73
2018-09-25T18:42:03.721Z,64.80
2018-09-25T18:44:50.713Z,65.11
2018-09-25T18:47:37.081Z,66.22
2018-09-25T18:50:23.401Z,66.42
2018-09-25T18:53:11.702Z,66.05
2018-09-25T18:55:58.348Z,66.21
2018-09-25T18:58:45.340Z,66.10
2018-09-25T19:01:32.394Z,66.93
2018-09-25T19:04:18.644Z,67.44
2018-09-25T19:07:05.483Z,67.50
2018-09-25T19:09:52.482Z,67.12
2018-09-25T19:12:39.369Z,67.08
2018-09-25T19:15:26.025Z,66.73
2018-09-25T19:18:12.853Z,66.98
2018-09-25T19:20:59.322Z,67.43
2018-09-25T19:23:46.156Z,67.71
2018-09-25T19:26:32.844Z,68.20
2018-09-25T19:29:19.407Z,68.59
2018-09-25T19:32:05.631Z,68.69
2018-09-25T19:34:51.958Z,68.53
2018-09-25T19:37:38.678Z,68.68
2018-09-25T19:40:25.181Z,68.96
2018-09-25T19:43:12.029Z,69.56
2018-09-25T19:45:58.600Z,69.57
2018-09-25T19:48:45.457Z,69.80
2018-09-25T19:51:31.872Z,69.55
2018-09-25T19:54:18.814Z,69.85
2018-09-25T19:57:05.711Z,70.16
2018-09-25T19:59:52.462Z,70.29
2018-09-25T20:02:39.313Z,70.70
2018-09-25T20:05:25.996Z,69.89
2018-09-25T20:08:12.308Z,70.58
2018-09-25T20:10:59.016Z,70.62
2018-09-25T20:13:45.551Z,70.77
2018-09-25T20:16:32.301Z,71.01
2018-09-25T20:19:18.782Z,70.80
2018-09-25T20:22:05.547Z,70.56
2018-09-25T20:24:52.195Z,70.71
2018-09-25T20:27:38.701Z,70.42
2018-09-25T20:30:25.361Z,70.76
2018-09-25T20:33:11.851Z,70.62
2018-09-25T20:35:58.541Z,70.62
2018-09-25T20:38:45.208Z,70.73
2018-09-25T20:41:31.857Z,70.33
2018-09-25T20:44:18.846Z,70.39
2018-09-25T20:47:05.353Z,70.36
2018-09-25T20:49:52.061Z,70.61
2018-09-25T20:52:38.799Z,70.52
2018-09-25T20:55:25.567Z,71.20
2018-09-25T20:58:11.924Z,71.27
2018-09-25T21:00:58.266Z,71.68
2018-09-25T21:03:45.394Z,71.70
2018-09-25T21:06:31.681Z,71.89
2018-09-25T21:09:18.070Z,72.27
2018-09-25T21:12:04.615Z,72.56
2018-09-25T21:14:51.836Z,72.86
2018-09-25T21:17:38.586Z,72.52
2018-09-25T21:20:25.637Z,72.14
2018-09-25T21:23:12.399Z,71.55
2018-09-25T21:25:59.170Z,72.43
2018-09-25T21:28:46.172Z,72.12
2018-09-25T21:31:32.717Z,72.06
2018-09-25T21:34:19.193Z,72.24
2018-09-25T21:37:06.105Z,72.25
2018-09-25T21:39:52.610Z,72.07
2018-09-25T21:42:39.092Z,72.09
2018-09-25T21:45:25.988Z,71.98
2018-09-25T21:48:12.408Z,72.18
2018-09-25T21:50:59.172Z,71.80
2018-09-25T21:53:45.652Z,71.97
2018-09-25T21:56:31.911Z,71.49
2018-09-25T21:59:18.557Z,72.15
2018-09-25T22:02:04.891Z,71.63
2018-09-25T22:04:51.704Z,71.83
2018-09-25T22:07:38.472Z,71.89
2018-09-25T22:10:25.095Z,72.16
2018-09-25T22:13:12.015Z,72.12
2018-09-25T22:15:58.559Z,72.19
2018-09-25T22:18:45.274Z,72.52
2018-09-25T22:21:32.120Z,72.65
2018-09-25T22:24:18.634Z,72.16
2018-09-25T22:27:05.475Z,72.87
2018-09-25T22:29:51.975Z,72.87
2018-09-25T22:32:38.739Z,72.91
2018-09-25T22:35:25.154Z,73.05
2018-09-25T22:38:12.065Z,73.39
2018-09-25T22:40:58.774Z,73.01
2018-09-25T22:43:45.241Z,72.93
2018-09-25T22:46:31.987Z,73.19
2018-09-25T22:49:18.700Z,72.98
2018-09-25T22:52:05.529Z,72.57
2018-09-25T22:54:52.497Z,72.55
2018-09-25T22:57:38.824Z,72.79
2018-09-25T23:00:25.168Z,72.76
2018-09-25T23:03:12.136Z,73.19
2018-09-25T23:05:58.821Z,72.10
2018-09-25T23:08:45.373Z,71.72
2018-09-25T23:11:32.356Z,73.22
2018-09-25T23:14:19.102Z,73.55
2018-09-25T23:17:05.594Z,73.23
2018-09-25T23:19:52.363Z,73.12
2018-09-25T23:22:39.173Z,72.77
2018-09-25T23:25:26.078Z,73.29
2018-09-25T23:28:12.522Z,73.71
2018-09-25T23:30:59.214Z,74.10
2018-09-25T23:33:46.063Z,74.15
2018-09-25T23:36:32.627Z,73.66
2018-09-25T23:39:19.558Z,73.88
2018-09-25T23:42:07.714Z,74.06
2018-09-25T23:44:50.528Z,74.21
2018-09-25T23:47:27.394Z,74.09
2018-09-25T23:49:59.562Z,74.15
2018-09-25T23:52:47.515Z,73.92
2018-09-25T23:55:24.380Z,73.55
2018-09-25T23:57:58.187Z,73.60
